Time;durP1;ratioP1;P1;durP2;ratioP2;P2;SDS_P1;SDS_P2;PMS_P1;PMS_P2;Temp;Humidity;BMP_temperature;BMP_pressure;BME280_temperature;BME280_humidity;BME280_pressure;Samples;Min_cycle;Max_cycle;Signal;HPM_P1;HPM_P2
2021/12/07 00:02:22;;;;;;;8.40;3.97;;;0.80;99.90;;;;;;4925652;29;20485;-88
2021/12/07 00:04:48;;;;;;;6.78;3.63;;;0.90;99.90;;;;;;4925863;29;20104;-87
2021/12/07 00:07:14;;;;;;;9.90;4.72;;;0.80;99.90;;;;;;4925958;29;20043;-88
2021/12/07 00:09:44;;;;;;;8.70;4.70;;;0.70;99.90;;;;;;4926250;29;20040;-87
2021/12/07 00:12:09;;;;;;;7.88;4.20;;;0.70;99.90;;;;;;4929956;29;20059;-87
2021/12/07 00:14:40;;;;;;;8.07;4.57;;;0.80;99.90;;;;;;4928650;29;20047;-86
2021/12/07 00:17:07;;;;;;;10.00;4.78;;;0.80;99.90;;;;;;4928930;29;20115;-86
2021/12/07 00:19:33;;;;;;;8.35;3.97;;;0.70;99.90;;;;;;4928901;29;20046;-86
2021/12/07 00:22:01;;;;;;;8.50;4.10;;;0.70;99.90;;;;;;4929851;29;20036;-86
2021/12/07 00:24:27;;;;;;;7.70;3.88;;;0.70;99.90;;;;;;4928465;29;20035;-86
2021/12/07 00:26:53;;;;;;;7.45;3.90;;;0.70;99.90;;;;;;4928607;29;20040;-86
2021/12/07 00:29:19;;;;;;;7.63;3.58;;;0.80;99.90;;;;;;4928232;29;20043;-86
2021/12/07 00:31:53;;;;;;;7.85;3.92;;;0.70;99.90;;;;;;4928406;29;20036;-86
2021/12/07 00:37:13;;;;;;;7.90;3.65;;;0.70;99.90;;;;;;4936878;29;20048;-87
2021/12/07 00:39:40;;;;;;;8.40;3.25;;;0.70;99.90;;;;;;4924609;29;20039;-87
2021/12/07 00:42:06;;;;;;;7.45;4.00;;;0.70;99.90;;;;;;4924953;29;20036;-87
2021/12/07 00:44:31;;;;;;;6.40;3.35;;;0.60;99.90;;;;;;4909453;29;20028;-87
2021/12/07 00:46:57;;;;;;;7.93;3.63;;;0.70;99.90;;;;;;4909502;29;20037;-87
2021/12/07 00:49:23;;;;;;;7.55;3.42;;;0.70;99.90;;;;;;4909394;29;20040;-87
2021/12/07 00:51:49;;;;;;;9.40;4.53;;;0.70;99.90;;;;;;4909162;29;20481;-87
2021/12/07 00:54:16;;;;;;;10.00;4.60;;;0.70;99.90;;;;;;4925102;29;20038;-87
2021/12/07 00:56:41;;;;;;;10.63;4.80;;;0.70;99.90;;;;;;4909378;29;20076;-88
2021/12/07 00:59:07;;;;;;;11.20;5.35;;;0.70;99.90;;;;;;4909394;29;20036;-88
2021/12/07 01:01:34;;;;;;;13.93;6.28;;;0.70;99.90;;;;;;4909246;29;20051;-88
2021/12/07 01:04:00;;;;;;;13.93;5.30;;;0.60;99.90;;;;;;4909448;29;20037;-87
2021/12/07 01:07:00;;;;;;;13.63;5.70;;;0.70;99.90;;;;;;4910591;29;20056;-88
2021/12/07 01:09:21;;;;;;;12.70;5.50;;;0.60;99.90;;;;;;4911483;29;20048;-88
2021/12/07 01:25:39;;;;;;;6.07;2.78;;;0.70;99.90;;;;;;4924766;29;20052;-88
2021/12/07 01:28:33;;;;;;;6.57;2.97;;;0.70;99.90;;;;;;4909158;29;20040;-87
2021/12/07 01:42:49;;;;;;;7.75;3.60;;;0.70;99.90;;;;;;4998474;28;20026;-87
2021/12/07 01:44:59;;;;;;;8.48;3.40;;;0.70;99.90;;;;;;4973138;28;20062;-88
2021/12/07 01:50:19;;;;;;;8.57;4.10;;;0.70;99.90;;;;;;4989338;28;20034;-88
2021/12/07 02:00:54;;;;;;;8.60;4.88;;;0.80;99.90;;;;;;4989055;28;20046;-88
2021/12/07 02:03:20;;;;;;;8.48;4.35;;;0.80;99.90;;;;;;4957093;28;20057;-87
2021/12/07 02:05:46;;;;;;;9.13;5.57;;;0.80;99.90;;;;;;4973110;28;20039;-87
2021/12/07 02:08:12;;;;;;;11.43;6.30;;;0.80;99.90;;;;;;4957066;28;20438;-87
2021/12/07 02:10:38;;;;;;;10.45;6.22;;;0.80;99.90;;;;;;4956811;28;20065;-86
2021/12/07 02:13:21;;;;;;;12.38;7.50;;;0.80;99.90;;;;;;4973427;28;20090;-87
2021/12/07 02:15:48;;;;;;;13.05;7.88;;;0.90;99.90;;;;;;4956692;28;20105;-86
2021/12/07 02:18:16;;;;;;;11.50;6.30;;;0.90;99.90;;;;;;4956826;28;20023;-85
2021/12/07 02:20:48;;;;;;;10.98;6.10;;;0.90;99.90;;;;;;4972377;28;20534;-86
2021/12/07 02:23:15;;;;;;;11.60;6.07;;;0.90;99.90;;;;;;4956287;28;20034;-86
2021/12/07 02:25:41;;;;;;;11.18;6.68;;;0.90;99.90;;;;;;4956211;28;20034;-86
2021/12/07 02:28:12;;;;;;;14.73;8.57;;;0.90;99.90;;;;;;4988509;28;20076;-85
2021/12/07 02:30:39;;;;;;;14.55;8.73;;;0.90;99.90;;;;;;4956157;28;20037;-87
2021/12/07 02:33:04;;;;;;;15.32;9.05;;;1.00;99.90;;;;;;4955759;28;20081;-86
2021/12/07 02:35:30;;;;;;;14.95;8.70;;;1.00;99.90;;;;;;4956022;28;20035;-86
2021/12/07 02:38:00;;;;;;;18.00;10.67;;;1.10;99.90;;;;;;4956614;28;20034;-86
2021/12/07 02:40:29;;;;;;;18.38;11.45;;;1.10;99.90;;;;;;4983572;28;20297;-86
2021/12/07 02:42:54;;;;;;;18.38;10.13;;;1.00;99.90;;;;;;4971756;28;20030;-86
2021/12/07 02:45:22;;;;;;;20.13;11.40;;;1.10;99.90;;;;;;4971951;28;20118;-86
2021/12/07 02:47:48;;;;;;;16.80;9.77;;;1.10;99.90;;;;;;4971888;28;20035;-86
2021/12/07 02:50:16;;;;;;;19.80;11.13;;;1.10;99.90;;;;;;4971801;28;20392;-86
2021/12/07 02:52:42;;;;;;;21.13;12.40;;;1.10;99.90;;;;;;4971103;28;20042;-86
2021/12/07 02:55:09;;;;;;;22.27;12.82;;;1.20;99.90;;;;;;4955632;28;20042;-86
2021/12/07 02:57:36;;;;;;;21.92;10.98;;;1.20;99.90;;;;;;4955758;28;20054;-86
2021/12/07 03:00:12;;;;;;;19.58;10.75;;;1.10;99.90;;;;;;4955593;28;20049;-86
2021/12/07 03:02:46;;;;;;;18.17;10.80;;;1.20;99.90;;;;;;4955598;28;20058;-87
2021/12/07 03:05:33;;;;;;;22.15;12.35;;;1.10;99.90;;;;;;4955483;28;20035;-86
2021/12/07 03:26:56;;;;;;;16.23;8.15;;;1.10;99.90;;;;;;4971246;28;20566;-87
2021/12/07 03:29:22;;;;;;;18.63;8.52;;;1.10;99.90;;;;;;4955260;28;20095;-87
2021/12/07 03:31:49;;;;;;;16.23;8.13;;;1.20;99.90;;;;;;4955016;28;20047;-87
2021/12/07 03:34:15;;;;;;;16.10;8.07;;;1.20;99.90;;;;;;4956651;28;20045;-88
2021/12/07 03:36:42;;;;;;;16.75;7.65;;;1.30;99.90;;;;;;4954985;28;20057;-88
2021/12/07 03:39:07;;;;;;;18.55;10.45;;;1.30;99.90;;;;;;4987159;28;20081;-87
2021/12/07 03:41:34;;;;;;;18.23;9.80;;;1.40;99.90;;;;;;4959267;28;20125;-87
2021/12/07 03:44:02;;;;;;;20.45;10.77;;;1.40;99.90;;;;;;4970991;28;20035;-87
2021/12/07 03:46:28;;;;;;;21.42;11.50;;;1.50;99.90;;;;;;4954820;28;20122;-87
2021/12/07 03:48:55;;;;;;;22.58;10.70;;;1.30;99.90;;;;;;4970765;28;20026;-88
2021/12/07 03:51:20;;;;;;;19.90;8.88;;;1.40;99.90;;;;;;4954861;28;20069;-88
2021/12/07 03:53:46;;;;;;;19.13;9.77;;;1.40;99.90;;;;;;4954760;28;20102;-88
2021/12/07 03:56:13;;;;;;;18.92;8.05;;;1.50;99.90;;;;;;4954750;28;20515;-88
2021/12/07 03:58:41;;;;;;;21.00;9.18;;;1.40;99.90;;;;;;4970946;28;20112;-88
2021/12/07 04:01:10;;;;;;;18.92;9.65;;;1.50;99.90;;;;;;4954521;28;20031;-88
2021/12/07 04:03:37;;;;;;;20.65;11.13;;;1.50;99.90;;;;;;4954259;28;20049;-88
2021/12/07 04:06:06;;;;;;;13.40;8.13;;;1.50;99.90;;;;;;4954629;28;20035;-89
2021/12/07 04:08:36;;;;;;;20.50;9.27;;;1.30;99.90;;;;;;4970625;28;20027;-89
2021/12/07 04:11:03;;;;;;;15.80;7.22;;;1.50;99.90;;;;;;4970344;28;20121;-89
2021/12/07 04:13:29;;;;;;;20.20;9.32;;;1.50;99.90;;;;;;4954557;28;20027;-88
2021/12/07 04:15:57;;;;;;;24.50;9.63;;;1.60;99.90;;;;;;4970416;28;20046;-89
2021/12/07 04:18:23;;;;;;;20.05;8.75;;;1.70;99.90;;;;;;4954296;28;20030;-89
2021/12/07 04:20:49;;;;;;;16.58;6.95;;;1.60;99.90;;;;;;4970305;28;20035;-88
2021/12/07 04:23:15;;;;;;;21.98;8.68;;;1.50;99.90;;;;;;4970043;28;20218;-88
2021/12/07 04:25:41;;;;;;;18.30;6.97;;;1.60;99.90;;;;;;4954495;28;20039;-88
2021/12/07 04:28:09;;;;;;;22.42;8.00;;;1.70;99.90;;;;;;4970156;28;20031;-88
2021/12/07 04:30:39;;;;;;;21.95;8.10;;;1.70;99.90;;;;;;4954182;28;20061;-88
2021/12/07 04:33:07;;;;;;;17.63;7.80;;;1.70;99.90;;;;;;4969643;28;20261;-88
2021/12/07 04:35:34;;;;;;;20.48;6.60;;;1.80;99.90;;;;;;4954000;28;20047;-88
2021/12/07 04:38:00;;;;;;;22.40;7.93;;;1.80;99.90;;;;;;4969794;28;20037;-89
2021/12/07 04:40:28;;;;;;;18.70;6.88;;;1.90;99.90;;;;;;4950582;29;20043;-88
2021/12/07 04:42:55;;;;;;;14.77;6.22;;;1.80;99.90;;;;;;4985080;28;20094;-88
2021/12/07 04:58:25;;;;;;;13.65;5.60;;;1.90;99.90;;;;;;4969835;28;20034;-88
2021/12/07 05:00:51;;;;;;;14.65;5.47;;;1.90;99.90;;;;;;4953733;28;20095;-86
2021/12/07 05:03:17;;;;;;;15.85;6.00;;;1.90;99.90;;;;;;4969670;28;20060;-86
2021/12/07 05:05:48;;;;;;;14.48;5.50;;;1.90;99.90;;;;;;4969809;28;20484;-87
2021/12/07 05:08:17;;;;;;;;;;;2.00;99.90;;;;;;4970295;28;20107;-87
2021/12/07 05:34:34;;;;;;;10.95;4.35;;;1.90;99.90;;;;;;4973164;28;20058;-87
2021/12/07 05:39:48;;;;;;;7.78;2.47;;;1.70;99.90;;;;;;4979873;28;20037;-86
2021/12/07 05:42:14;;;;;;;10.73;2.35;;;1.80;99.90;;;;;;4978993;28;20035;-87
2021/12/07 05:44:41;;;;;;;8.00;1.88;;;1.60;99.90;;;;;;4956773;28;20030;-87
2021/12/07 05:47:07;;;;;;;8.27;1.77;;;1.70;99.90;;;;;;4972992;28;20058;-87
2021/12/07 05:49:34;;;;;;;12.68;1.65;;;1.80;99.90;;;;;;4972656;28;20066;-87
2021/12/07 05:52:00;;;;;;;8.07;2.15;;;1.90;99.90;;;;;;4956487;28;20037;-87
2021/12/07 05:54:25;;;;;;;14.38;2.30;;;1.90;99.90;;;;;;4956535;28;20038;-87
2021/12/07 05:56:51;;;;;;;10.30;2.05;;;1.70;99.90;;;;;;4956498;28;20047;-87
2021/12/07 05:59:17;;;;;;;7.65;2.05;;;1.60;99.90;;;;;;4956599;28;20144;-87
2021/12/07 06:01:43;;;;;;;7.25;1.73;;;1.70;99.90;;;;;;4972197;28;20054;-87
2021/12/07 06:04:09;;;;;;;7.88;1.90;;;1.70;99.90;;;;;;4956276;28;20027;-87
2021/12/07 06:06:34;;;;;;;8.70;1.88;;;1.60;99.90;;;;;;4956481;28;20387;-87
2021/12/07 06:09:00;;;;;;;9.73;2.45;;;1.70;99.90;;;;;;4972292;28;20054;-87
2021/12/07 06:11:25;;;;;;;6.20;1.40;;;1.60;99.90;;;;;;4956440;28;20035;-87
2021/12/07 06:13:51;;;;;;;8.18;1.70;;;1.60;99.90;;;;;;4956255;28;20023;-87
2021/12/07 06:16:18;;;;;;;5.88;2.03;;;1.60;99.90;;;;;;4988124;28;20050;-86
2021/12/07 06:18:44;;;;;;;6.82;1.63;;;1.60;99.90;;;;;;4956034;28;20126;-87
2021/12/07 06:21:10;;;;;;;5.32;2.17;;;1.60;99.90;;;;;;4972086;28;20030;-87
2021/12/07 06:23:36;;;;;;;7.80;1.20;;;1.50;99.90;;;;;;4956036;28;20098;-86
2021/12/07 06:26:03;;;;;;;5.85;1.60;;;1.40;99.90;;;;;;4956283;28;20031;-86
2021/12/07 06:28:29;;;;;;;9.45;2.15;;;1.50;99.90;;;;;;4955382;28;20031;-87
2021/12/07 06:30:55;;;;;;;8.50;1.45;;;1.50;99.90;;;;;;4955837;28;20050;-87
2021/12/07 06:33:23;;;;;;;9.63;2.08;;;1.60;99.90;;;;;;4972137;28;20051;-87
2021/12/07 06:35:51;;;;;;;11.07;1.92;;;1.60;99.90;;;;;;4971812;28;20047;-87
2021/12/07 06:38:18;;;;;;;8.02;1.90;;;1.70;99.90;;;;;;4971979;28;20042;-86
2021/12/07 06:40:44;;;;;;;11.00;2.25;;;1.90;99.90;;;;;;4953499;28;20046;-87
2021/12/07 06:43:10;;;;;;;9.75;2.60;;;2.00;99.90;;;;;;4955781;28;20031;-86
2021/12/07 06:45:36;;;;;;;8.82;1.73;;;2.00;99.90;;;;;;4955832;28;20039;-87
2021/12/07 06:48:03;;;;;;;8.55;1.40;;;2.00;99.90;;;;;;4955834;28;20122;-87
2021/12/07 06:50:28;;;;;;;8.68;1.80;;;1.90;99.90;;;;;;4987715;28;20031;-87
2021/12/07 06:52:54;;;;;;;8.27;1.30;;;1.90;99.90;;;;;;4955544;28;20065;-87
2021/12/07 06:55:20;;;;;;;7.80;1.50;;;1.90;99.90;;;;;;4971622;28;20101;-87
2021/12/07 06:57:46;;;;;;;4.20;0.80;;;1.90;99.90;;;;;;4987894;28;20042;-87
2021/12/07 07:00:14;;;;;;;4.57;0.75;;;1.80;99.90;;;;;;4955610;28;20038;-86
2021/12/07 07:02:40;;;;;;;4.78;1.02;;;1.70;99.90;;;;;;4955380;28;20031;-86
2021/12/07 07:05:06;;;;;;;6.68;1.00;;;1.60;99.90;;;;;;4971666;28;20034;-86
2021/12/07 07:07:34;;;;;;;4.25;0.80;;;1.60;99.90;;;;;;4955364;28;20039;-87
2021/12/07 07:10:00;;;;;;;7.10;0.50;;;1.60;99.90;;;;;;4955527;28;20468;-86
2021/12/07 07:12:25;;;;;;;6.38;0.80;;;1.50;99.90;;;;;;4955343;28;20069;-87
2021/12/07 07:14:51;;;;;;;5.45;1.13;;;1.50;99.90;;;;;;4955214;28;20062;-87
2021/12/07 07:17:17;;;;;;;5.57;0.63;;;1.50;99.90;;;;;;4955260;28;20066;-87
2021/12/07 07:19:44;;;;;;;3.72;1.00;;;1.40;99.90;;;;;;4971128;28;20109;-88
2021/12/07 07:22:10;;;;;;;5.75;0.63;;;1.40;99.90;;;;;;4954964;28;20451;-88
2021/12/07 07:24:36;;;;;;;7.95;0.70;;;1.40;99.90;;;;;;4971353;28;20070;-88
2021/12/07 07:27:02;;;;;;;4.30;0.63;;;1.30;99.90;;;;;;4987320;28;20483;-88
2021/12/07 07:29:28;;;;;;;4.20;0.52;;;1.40;99.90;;;;;;4955202;28;20043;-91
2021/12/07 07:31:54;;;;;;;4.57;0.70;;;1.40;99.90;;;;;;4932717;28;20066;-89
2021/12/07 07:34:20;;;;;;;6.57;0.88;;;1.30;99.90;;;;;;4955022;28;20106;-89
2021/12/07 07:36:46;;;;;;;7.07;0.65;;;1.40;99.90;;;;;;4961389;28;20070;-91
2021/12/07 07:39:15;;;;;;;8.90;1.27;;;1.30;99.90;;;;;;4966889;28;20027;-89
2021/12/07 07:41:40;;;;;;;4.68;1.23;;;1.30;99.90;;;;;;4970839;28;20464;-89
2021/12/07 07:44:06;;;;;;;7.50;1.20;;;1.40;99.90;;;;;;4969644;28;20041;-89
2021/12/07 07:46:41;;;;;;;6.18;1.15;;;1.40;99.90;;;;;;4967619;28;20094;-90
2021/12/07 07:49:07;;;;;;;7.03;0.98;;;1.40;99.90;;;;;;4969470;28;20026;-91
2021/12/07 07:51:33;;;;;;;6.05;1.23;;;1.30;99.90;;;;;;4968641;28;20062;-91
2021/12/07 07:54:00;;;;;;;12.15;1.67;;;1.30;99.90;;;;;;4968812;28;20039;-92
2021/12/07 07:56:28;;;;;;;6.57;1.95;;;1.40;99.90;;;;;;4953470;28;20138;-92
2021/12/07 07:58:54;;;;;;;10.88;1.23;;;1.30;99.90;;;;;;4953088;28;20117;-93
2021/12/07 08:01:23;;;;;;;6.45;1.30;;;1.30;99.90;;;;;;4968027;28;20062;-93
2021/12/07 08:03:52;;;;;;;7.03;1.05;;;1.30;99.90;;;;;;4958882;28;20039;-93
2021/12/07 08:06:18;;;;;;;10.23;1.65;;;1.40;99.90;;;;;;4953268;28;20066;-95
2021/12/07 08:08:44;;;;;;;13.77;1.77;;;1.40;99.90;;;;;;4958889;28;20042;-94
2021/12/07 08:11:10;;;;;;;8.05;1.10;;;1.50;99.90;;;;;;4968408;28;20390;-94
2021/12/07 08:13:35;;;;;;;8.60;1.50;;;1.40;99.90;;;;;;4957897;28;20035;-93
2021/12/07 08:16:01;;;;;;;9.13;1.20;;;1.40;99.90;;;;;;4968175;28;20038;-93
2021/12/07 08:18:27;;;;;;;13.05;2.03;;;1.40;99.90;;;;;;4957925;28;20102;-93
2021/12/07 08:20:53;;;;;;;9.57;1.70;;;1.40;99.90;;;;;;4968083;28;20038;-93
2021/12/07 08:23:19;;;;;;;9.52;1.40;;;1.50;99.90;;;;;;4967605;28;20027;-94
2021/12/07 08:25:47;;;;;;;5.95;1.05;;;1.40;99.90;;;;;;4954401;28;20539;-93
2021/12/07 08:28:19;;;;;;;6.18;1.15;;;1.40;99.90;;;;;;4955469;28;20046;-93
2021/12/07 08:30:46;;;;;;;10.80;2.67;;;1.50;99.90;;;;;;4952154;28;20470;-94
2021/12/07 08:33:11;;;;;;;14.18;2.63;;;1.60;99.90;;;;;;4967122;28;20051;-92
2021/12/07 08:35:38;;;;;;;12.80;2.63;;;1.60;99.90;;;;;;4969273;28;20058;-90
2021/12/07 08:38:05;;;;;;;10.52;2.65;;;1.70;99.90;;;;;;4969513;28;20045;-92
2021/12/07 08:40:34;;;;;;;13.95;2.88;;;1.60;99.90;;;;;;4969399;28;20035;-90
2021/12/07 08:43:02;;;;;;;8.10;2.20;;;1.60;99.90;;;;;;4966470;29;20040;-91
2021/12/07 08:45:27;;;;;;;6.85;1.40;;;1.60;99.90;;;;;;4967594;28;20479;-93
2021/12/07 08:47:54;;;;;;;7.90;2.47;;;1.60;99.90;;;;;;4969567;28;20041;-90
2021/12/07 08:50:25;;;;;;;5.97;1.73;;;1.60;99.90;;;;;;4943381;28;20030;-90
2021/12/07 08:52:54;;;;;;;14.02;4.53;;;1.70;99.90;;;;;;4968679;28;20034;-90
2021/12/07 09:00:53;;;;;;;14.75;4.72;;;1.90;99.90;;;;;;4968891;28;20042;-92
2021/12/07 09:03:20;;;;;;;12.55;4.57;;;1.80;99.90;;;;;;4952997;28;20038;-92
2021/12/07 09:05:45;;;;;;;19.45;5.97;;;1.90;99.90;;;;;;4965616;29;20067;-93
2021/12/07 09:08:11;;;;;;;12.50;5.88;;;2.00;99.90;;;;;;4969094;28;20034;-91
2021/12/07 09:10:37;;;;;;;13.50;5.65;;;2.00;99.90;;;;;;4953478;28;20039;-91
2021/12/07 09:13:09;;;;;;;11.23;4.55;;;2.00;99.90;;;;;;4953906;28;20058;-91
2021/12/07 09:15:35;;;;;;;14.23;6.53;;;2.10;99.90;;;;;;4953016;28;20114;-91
2021/12/07 09:18:02;;;;;;;13.68;6.35;;;2.10;99.90;;;;;;4968436;28;20035;-91
2021/12/07 09:20:29;;;;;;;14.45;6.50;;;2.20;99.90;;;;;;4970217;28;20115;-91
2021/12/07 09:22:56;;;;;;;16.15;7.53;;;2.20;99.90;;;;;;4962456;28;20053;-90
2021/12/07 09:25:22;;;;;;;23.50;8.30;;;2.30;99.90;;;;;;4964776;28;20082;-91
2021/12/07 09:27:48;;;;;;;18.08;7.47;;;2.30;99.90;;;;;;4949082;29;20122;-91
2021/12/07 09:30:34;;;;;;;20.00;8.45;;;2.30;99.90;;;;;;4952998;28;20058;-90
2021/12/07 09:32:59;;;;;;;14.10;7.57;;;2.30;99.90;;;;;;4880723;29;20112;-91
2021/12/07 09:35:25;;;;;;;21.10;8.30;;;2.30;99.90;;;;;;4906790;29;20072;-90
2021/12/07 09:37:52;;;;;;;20.63;7.80;;;2.40;99.90;;;;;;4907595;29;20044;-89
2021/12/07 09:40:22;;;;;;;15.70;6.50;;;2.40;99.90;;;;;;4907827;29;20041;-91
2021/12/07 09:42:52;;;;;;;20.42;8.18;;;2.50;99.90;;;;;;4902992;29;20052;-90
2021/12/07 09:45:19;;;;;;;23.25;7.07;;;2.50;99.90;;;;;;4876458;29;20337;-90
2021/12/07 09:47:45;;;;;;;13.90;6.30;;;2.50;99.90;;;;;;4890704;29;20059;-91
2021/12/07 09:50:15;;;;;;;14.95;6.40;;;2.60;99.90;;;;;;4891471;29;20116;-91
2021/12/07 09:52:59;;;;;;;13.32;6.28;;;2.60;99.90;;;;;;4907630;29;20033;-91
2021/12/07 09:55:25;;;;;;;19.98;5.85;;;2.60;99.90;;;;;;4908191;29;20049;-89
2021/12/07 09:57:52;;;;;;;18.48;5.70;;;2.60;99.90;;;;;;4892737;29;20048;-89
2021/12/07 10:00:21;;;;;;;8.85;3.90;;;2.60;99.90;;;;;;4895040;29;20040;-90
2021/12/07 10:02:53;;;;;;;17.58;5.75;;;2.60;99.90;;;;;;4893620;29;20432;-89
2021/12/07 10:05:20;;;;;;;19.63;5.30;;;2.70;99.90;;;;;;4899774;29;20029;-89
2021/12/07 10:07:47;;;;;;;18.70;5.82;;;2.80;99.90;;;;;;4883717;29;20100;-89
2021/12/07 10:10:28;;;;;;;23.52;7.45;;;2.90;99.90;;;;;;4939005;28;20058;-88
2021/12/07 10:13:07;;;;;;;15.77;7.78;;;2.90;99.90;;;;;;4955991;28;20035;-88
2021/12/07 10:15:34;;;;;;;20.58;8.40;;;2.90;99.90;;;;;;4970103;28;20043;-89
2021/12/07 10:18:04;;;;;;;14.43;6.30;;;2.90;99.90;;;;;;4971896;28;20031;-89
2021/12/07 10:20:49;;;;;;;20.80;7.15;;;2.90;99.90;;;;;;4988152;28;20031;-88
2021/12/07 10:23:15;;;;;;;14.07;6.55;;;3.00;99.90;;;;;;4989415;28;20070;-88
2021/12/07 10:26:01;;;;;;;14.07;5.47;;;3.10;99.90;;;;;;4983941;28;20052;-90
2021/12/07 10:28:36;;;;;;;11.70;6.20;;;3.10;99.90;;;;;;4956040;28;20031;-88
2021/12/07 10:31:26;;;;;;;15.23;6.53;;;3.30;99.90;;;;;;4961079;28;20111;-89
2021/12/07 10:34:00;;;;;;;17.92;6.15;;;3.30;99.90;;;;;;4959599;28;20043;-89
2021/12/07 10:36:39;;;;;;;16.88;5.97;;;3.30;99.90;;;;;;4982858;28;20043;-88
2021/12/07 10:39:20;;;;;;;16.35;6.10;;;3.30;99.90;;;;;;4968350;28;20043;-89
2021/12/07 10:42:05;;;;;;;11.40;4.28;;;3.30;99.90;;;;;;4967979;29;20066;-88
2021/12/07 10:44:33;;;;;;;14.50;5.93;;;3.30;99.90;;;;;;4968229;28;20027;-87
2021/12/07 10:47:06;;;;;;;14.85;4.55;;;3.40;99.90;;;;;;4951276;29;20082;-89
2021/12/07 10:49:37;;;;;;;12.88;4.30;;;3.40;99.90;;;;;;4952072;29;20027;-88
2021/12/07 10:52:21;;;;;;;11.55;3.65;;;3.50;99.90;;;;;;4972880;28;20038;-88
2021/12/07 10:54:56;;;;;;;14.38;3.95;;;3.60;99.90;;;;;;4967770;28;20039;-88
2021/12/07 10:57:33;;;;;;;16.15;2.97;;;3.60;99.90;;;;;;4968252;28;20125;-86
2021/12/07 11:00:07;;;;;;;11.23;2.83;;;3.70;99.90;;;;;;4949172;29;20035;-88
2021/12/07 11:02:47;;;;;;;10.30;1.92;;;3.70;99.90;;;;;;4968350;29;20035;-86
2021/12/07 11:05:20;;;;;;;10.25;3.75;;;3.80;99.90;;;;;;4965115;29;20039;-87
2021/12/07 11:07:47;;;;;;;14.48;3.13;;;3.80;99.90;;;;;;4947593;29;20067;-88
2021/12/07 11:10:23;;;;;;;13.23;3.53;;;3.80;99.90;;;;;;4963979;29;20031;-87
2021/12/07 11:13:13;;;;;;;10.90;2.58;;;3.80;99.90;;;;;;4952556;29;20031;-87
2021/12/07 11:15:49;;;;;;;14.13;3.10;;;3.90;99.90;;;;;;4967573;29;20062;-87
2021/12/07 11:18:17;;;;;;;13.88;2.60;;;4.00;99.90;;;;;;4967401;29;20043;-87
2021/12/07 11:20:42;;;;;;;7.75;2.33;;;4.10;99.90;;;;;;4949231;29;20023;-86
2021/12/07 11:23:30;;;;;;;10.57;2.50;;;4.10;99.90;;;;;;4967308;29;20507;-87
2021/12/07 11:31:20;;;;;;;6.65;3.10;;;4.30;99.90;;;;;;4966377;29;20041;-85
2021/12/07 11:33:47;;;;;;;10.02;3.40;;;4.30;99.90;;;;;;4982136;28;20055;-87
2021/12/07 11:36:27;;;;;;;7.57;3.03;;;4.30;99.90;;;;;;4951172;29;20043;-88
2021/12/07 11:38:54;;;;;;;14.25;3.50;;;4.40;99.90;;;;;;4967259;28;20041;-87
2021/12/07 11:41:31;;;;;;;6.85;2.40;;;4.40;99.90;;;;;;4949635;29;20027;-89
2021/12/07 11:44:08;;;;;;;9.90;3.20;;;4.50;99.90;;;;;;4965837;28;20094;-90
2021/12/07 11:46:36;;;;;;;6.85;2.25;;;4.50;99.90;;;;;;4959481;29;20031;-88
2021/12/07 11:49:26;;;;;;;8.25;2.58;;;4.60;99.90;;;;;;4964968;29;20098;-89
2021/12/07 11:52:04;;;;;;;10.77;2.17;;;4.60;99.90;;;;;;4965446;29;20035;-88
2021/12/07 11:54:39;;;;;;;9.65;2.72;;;4.70;99.90;;;;;;4966609;29;20031;-88
2021/12/07 11:57:11;;;;;;;8.30;1.88;;;4.80;99.90;;;;;;4959822;29;20039;-87
2021/12/07 11:59:37;;;;;;;7.95;2.33;;;4.80;99.90;;;;;;4965979;29;20042;-89
2021/12/07 12:02:05;;;;;;;6.38;2.00;;;4.80;99.90;;;;;;4966702;29;20023;-89
2021/12/07 12:04:31;;;;;;;6.63;1.83;;;4.80;99.90;;;;;;4966425;29;20035;-89
2021/12/07 12:06:58;;;;;;;10.15;2.00;;;4.80;99.90;;;;;;4966505;29;20036;-88
2021/12/07 12:09:25;;;;;;;14.32;2.03;;;4.80;99.90;;;;;;4950290;29;20039;-89
2021/12/07 12:12:11;;;;;;;8.40;2.10;;;4.80;99.90;;;;;;4966298;28;20035;-89
2021/12/07 12:14:36;;;;;;;10.40;1.38;;;4.80;99.90;;;;;;4966446;29;20186;-88
2021/12/07 12:17:08;;;;;;;7.15;1.50;;;4.80;99.90;;;;;;4974598;28;20067;-87
2021/12/07 12:20:09;;;;;;;11.75;1.40;;;4.80;99.90;;;;;;4950296;29;20027;-89
2021/12/07 12:22:56;;;;;;;10.70;1.15;;;4.80;99.90;;;;;;4895709;29;20039;-89
2021/12/07 12:25:25;;;;;;;9.10;1.08;;;4.90;99.90;;;;;;4946511;29;20094;-89
2021/12/07 12:27:53;;;;;;;8.65;1.63;;;4.80;99.90;;;;;;4966331;29;20086;-88
2021/12/07 12:33:50;;;;;;;9.85;1.40;;;5.00;99.90;;;;;;4944054;29;20162;-88
2021/12/07 12:36:18;;;;;;;5.10;1.00;;;5.00;99.90;;;;;;4925816;29;20056;-87
2021/12/07 12:39:00;;;;;;;7.03;1.15;;;5.10;99.90;;;;;;4933819;29;20174;-88
2021/12/07 12:41:27;;;;;;;5.80;0.80;;;5.10;99.90;;;;;;4930591;29;20083;-87
2021/12/07 12:44:08;;;;;;;5.05;0.88;;;5.10;99.90;;;;;;4940535;29;20048;-87
2021/12/07 12:46:38;;;;;;;4.55;1.35;;;5.20;99.90;;;;;;4939018;29;20074;-86
2021/12/07 12:49:08;;;;;;;6.90;1.17;;;5.10;99.90;;;;;;4945904;29;20038;-86
2021/12/07 12:51:47;;;;;;;6.28;0.60;;;5.20;99.90;;;;;;4918218;29;20040;-89
2021/12/07 12:54:13;;;;;;;6.75;0.80;;;5.30;99.90;;;;;;4941857;29;20391;-89
2021/12/07 12:56:39;;;;;;;8.93;0.98;;;5.30;99.90;;;;;;4918957;29;20028;-90
2021/12/07 12:59:09;;;;;;;10.00;1.45;;;5.30;99.90;;;;;;4928564;29;20024;-88
2021/12/07 13:01:36;;;;;;;7.65;1.10;;;5.30;99.90;;;;;;4941785;29;20032;-88
2021/12/07 13:04:17;;;;;;;8.10;1.73;;;5.30;99.90;;;;;;4935100;29;20036;-89
2021/12/07 13:06:52;;;;;;;;;;;5.20;99.90;;;;;;4918260;29;20035;-89
2021/12/07 13:09:25;;;;;;;8.77;0.93;;;5.10;99.90;;;;;;4915883;29;19911;-90
2021/12/07 13:11:52;;;;;;;7.65;1.00;;;5.10;99.90;;;;;;4917722;29;20059;-88
2021/12/07 13:14:21;;;;;;;4.95;1.25;;;5.10;99.90;;;;;;4930054;29;20131;-90
2021/12/07 13:17:19;;;;;;;8.52;1.05;;;5.00;99.90;;;;;;4930791;29;20051;-88
2021/12/07 13:20:03;;;;;;;5.57;0.80;;;5.00;99.90;;;;;;4917997;29;20056;-90
2021/12/07 13:23:16;;;;;;;7.25;1.30;;;5.10;99.90;;;;;;4923445;29;20099;-88
2021/12/07 13:25:45;;;;;;;8.20;1.13;;;5.00;99.90;;;;;;4821408;29;20038;-90
2021/12/07 13:28:25;;;;;;;8.40;1.15;;;5.00;99.90;;;;;;4846052;29;20030;-90
2021/12/07 13:31:02;;;;;;;4.10;0.77;;;5.00;99.90;;;;;;4852280;29;20046;-91
2021/12/07 13:33:38;;;;;;;8.55;1.20;;;5.00;99.90;;;;;;4820689;29;20129;-92
2021/12/07 13:36:36;;;;;;;12.35;1.23;;;5.00;99.90;;;;;;4841175;29;20045;-90
2021/12/07 13:39:15;;;;;;;6.63;0.90;;;5.00;99.90;;;;;;4836227;29;20038;-90
2021/12/07 13:41:50;;;;;;;12.55;1.80;;;4.90;99.90;;;;;;4848136;29;20102;-90
2021/12/07 13:44:19;;;;;;;5.78;1.17;;;5.00;99.90;;;;;;4856198;29;20525;-94
2021/12/07 13:46:45;;;;;;;7.40;0.80;;;4.90;99.90;;;;;;4855640;29;20571;-91
2021/12/07 13:49:12;;;;;;;10.70;1.40;;;4.90;99.90;;;;;;4840243;29;20519;-90
2021/12/07 13:51:49;;;;;;;6.65;1.25;;;4.80;99.90;;;;;;4828829;29;20063;-93
2021/12/07 13:54:18;;;;;;;7.10;1.73;;;4.80;99.90;;;;;;4834964;29;20041;-91
2021/12/07 13:56:44;;;;;;;4.72;1.00;;;4.70;99.90;;;;;;4885437;29;20115;-94
2021/12/07 13:59:12;;;;;;;9.43;1.25;;;4.80;99.90;;;;;;4915058;29;20039;-90
2021/12/07 14:01:48;;;;;;;8.10;1.90;;;4.70;99.90;;;;;;4928977;29;20063;-91
2021/12/07 14:04:13;;;;;;;6.43;1.17;;;4.60;99.90;;;;;;4930378;29;20028;-93
2021/12/07 14:06:48;;;;;;;6.68;0.98;;;4.60;99.90;;;;;;4929770;29;20036;-92
2021/12/07 14:09:14;;;;;;;8.55;1.20;;;4.60;99.90;;;;;;4937121;29;20103;-94
2021/12/07 14:11:40;;;;;;;7.45;1.05;;;4.50;99.90;;;;;;4919272;29;20040;-93
2021/12/07 14:14:11;;;;;;;6.78;1.20;;;4.50;99.90;;;;;;4923612;29;20051;-94
2021/12/07 14:16:38;;;;;;;6.97;1.15;;;4.50;99.90;;;;;;4918244;29;20054;-95
2021/12/07 14:19:04;;;;;;;5.72;1.73;;;4.40;99.90;;;;;;4917765;29;20039;-95
2021/12/07 14:21:35;;;;;;;7.93;0.90;;;4.40;99.90;;;;;;4923058;29;20043;-93
2021/12/07 14:24:09;;;;;;;6.32;1.17;;;4.40;99.90;;;;;;4925170;29;20052;-96
2021/12/07 14:26:39;;;;;;;6.25;1.08;;;4.40;99.90;;;;;;4925322;29;20055;-96
2021/12/07 14:29:21;;;;;;;7.30;1.15;;;4.30;99.90;;;;;;4919691;29;20032;-96
2021/12/07 14:32:09;;;;;;;8.25;1.08;;;4.30;99.90;;;;;;4890608;29;20148;-95
2021/12/07 14:34:35;;;;;;;5.85;0.63;;;4.30;99.90;;;;;;4915165;29;20051;-95
2021/12/07 14:37:02;;;;;;;5.25;1.25;;;4.20;99.90;;;;;;4914490;29;20044;-96
2021/12/07 14:39:34;;;;;;;3.85;0.90;;;4.20;99.90;;;;;;4913473;29;20028;-96
2021/12/07 14:42:02;;;;;;;8.00;0.90;;;4.20;99.90;;;;;;4927570;29;20108;-96
2021/12/07 14:44:30;;;;;;;7.00;0.90;;;4.20;99.90;;;;;;4916181;29;20051;-96
2021/12/07 14:47:00;;;;;;;9.80;1.85;;;4.10;99.90;;;;;;4918117;29;20051;-93
2021/12/07 14:49:27;;;;;;;6.43;1.10;;;4.10;99.90;;;;;;4910194;29;20040;-96
2021/12/07 14:52:14;;;;;;;4.38;0.98;;;4.00;99.90;;;;;;4932795;29;20040;-95
2021/12/07 14:54:41;;;;;;;6.50;0.98;;;4.00;99.90;;;;;;4923984;29;20048;-93
2021/12/07 14:57:07;;;;;;;7.57;0.88;;;4.00;99.90;;;;;;4929941;29;20076;-96
2021/12/07 14:59:36;;;;;;;6.97;0.77;;;4.00;99.90;;;;;;4916781;29;20112;-96